Time;durP1;ratioP1;P1;durP2;ratioP2;P2;SDS_P1;SDS_P2;PMS_P1;PMS_P2;Temp;Humidity;BMP_temperature;BMP_pressure;BME280_temperature;BME280_humidity;BME280_pressure;Samples;Min_cycle;Max_cycle;Signal;HPM_P1;HPM_P2
2023/10/17 00:09:24;;;;;;;23.37;11.23;;;;;;;;;;10493638;28;20036;-80
2023/10/17 00:14:45;;;;;;;22.80;11.60;;;;;;;;;;10489746;28;20041;-80
2023/10/17 00:19:49;;;;;;;26.73;13.60;;;;;;;;;;10497354;28;20029;-80
2023/10/17 00:25:01;;;;;;;28.43;13.27;;;;;;;;;;10492586;28;20515;-80
2023/10/17 00:30:03;;;;;;;23.07;12.80;;;;;;;;;;10489834;28;20029;-80
2023/10/17 00:35:12;;;;;;;23.83;13.07;;;;;;;;;;10497090;28;20067;-79
2023/10/17 00:40:34;;;;;;;29.00;13.03;;;;;;;;;;10489299;28;20522;-80
2023/10/17 00:45:35;;;;;;;32.00;17.23;;;;;;;;;;10490400;28;20409;-81
2023/10/17 00:50:37;;;;;;;39.17;18.90;;;;;;;;;;10490583;28;20036;-80
2023/10/17 00:55:40;;;;;;;32.83;17.17;;;;;;;;;;10487381;28;20060;-79
2023/10/17 01:00:45;;;;;;;39.57;21.67;;;;;;;;;;10494001;28;20031;-80
2023/10/17 01:06:13;;;;;;;51.23;24.37;;;;;;;;;;10487558;28;20412;-80
2023/10/17 01:11:20;;;;;;;40.77;19.47;;;;;;;;;;10498593;28;20035;-81
2023/10/17 01:16:22;;;;;;;44.57;22.43;;;;;;;;;;10497498;28;20036;-79
2023/10/17 01:21:23;;;;;;;39.10;18.93;;;;;;;;;;10488055;28;20039;-79
2023/10/17 01:26:24;;;;;;;41.27;18.27;;;;;;;;;;10494571;28;20147;-81
2023/10/17 01:31:25;;;;;;;34.63;17.33;;;;;;;;;;10488228;28;20089;-80
2023/10/17 01:36:26;;;;;;;28.37;14.47;;;;;;;;;;10498582;28;20117;-79
2023/10/17 01:41:27;;;;;;;25.10;13.80;;;;;;;;;;10485366;28;20032;-80
2023/10/17 01:46:28;;;;;;;27.73;13.83;;;;;;;;;;10486752;28;20106;-79
2023/10/17 01:51:29;;;;;;;26.00;12.10;;;;;;;;;;10488990;28;20031;-80
2023/10/17 01:56:32;;;;;;;29.67;14.57;;;;;;;;;;10492994;28;20032;-79
2023/10/17 02:01:36;;;;;;;27.93;16.07;;;;;;;;;;10485679;28;20064;-81
2023/10/17 02:06:38;;;;;;;24.90;13.33;;;;;;;;;;10489840;28;20037;-79
2023/10/17 02:11:44;;;;;;;35.73;18.70;;;;;;;;;;10485822;28;20031;-79
2023/10/17 02:16:45;;;;;;;36.63;20.42;;;;;;;;;;10485866;28;20048;-79
2023/10/17 02:21:50;;;;;;;34.47;18.73;;;;;;;;;;10507518;28;20025;-79
2023/10/17 02:27:00;;;;;;;37.65;14.32;;;;;;;;;;10484905;28;20599;-80
2023/10/17 02:32:01;;;;;;;28.47;16.13;;;;;;;;;;10496023;28;20411;-80
2023/10/17 02:37:04;;;;;;;35.53;18.50;;;;;;;;;;10491527;28;20071;-79
2023/10/17 02:42:08;;;;;;;31.17;18.20;;;;;;;;;;10489053;28;20400;-80
2023/10/17 02:47:13;;;;;;;31.37;17.57;;;;;;;;;;10499166;28;20527;-79
2023/10/17 02:52:17;;;;;;;22.10;12.27;;;;;;;;;;10497622;28;20506;-81
2023/10/17 02:57:18;;;;;;;33.70;17.07;;;;;;;;;;10492304;28;20040;-80
2023/10/17 03:02:25;;;;;;;34.07;17.60;;;;;;;;;;10498932;28;20645;-80
2023/10/17 03:07:26;;;;;;;37.60;20.13;;;;;;;;;;10508866;28;20064;-79
2023/10/17 03:12:29;;;;;;;32.80;19.13;;;;;;;;;;10498177;28;20028;-79
2023/10/17 03:17:30;;;;;;;33.37;19.33;;;;;;;;;;10495537;28;20047;-77
2023/10/17 03:22:31;;;;;;;35.83;19.20;;;;;;;;;;10498269;28;20035;-80
2023/10/17 03:27:36;;;;;;;34.67;20.27;;;;;;;;;;10503325;28;20059;-80
2023/10/17 03:32:59;;;;;;;25.07;13.57;;;;;;;;;;10512335;28;20073;-80
2023/10/17 03:38:00;;;;;;;28.20;15.47;;;;;;;;;;10511039;28;20415;-81
2023/10/17 03:43:15;;;;;;;33.90;17.53;;;;;;;;;;10503558;28;20040;-81
2023/10/17 03:48:16;;;;;;;35.17;17.97;;;;;;;;;;10493902;28;20032;-79
2023/10/17 03:53:29;;;;;;;28.23;16.00;;;;;;;;;;10489001;28;20912;-78
2023/10/17 04:03:34;;;;;;;35.57;19.63;;;;;;;;;;10514089;28;20947;-80
2023/10/17 04:08:37;;;;;;;36.37;19.23;;;;;;;;;;10492927;28;20067;-82
2023/10/17 04:13:38;;;;;;;38.37;19.67;;;;;;;;;;10495199;28;20032;-79
2023/10/17 04:18:39;;;;;;;27.73;14.40;;;;;;;;;;10502169;28;20028;-79
2023/10/17 04:23:42;;;;;;;32.37;18.17;;;;;;;;;;10505897;28;20418;-79
2023/10/17 04:28:48;;;;;;;39.97;21.47;;;;;;;;;;10487003;28;20041;-79
2023/10/17 04:33:49;;;;;;;55.30;27.83;;;;;;;;;;10492114;28;20033;-79
2023/10/17 04:44:16;;;;;;;81.23;32.13;;;;;;;;;;10491248;28;20111;-79
2023/10/17 04:49:24;;;;;;;79.53;34.43;;;;;;;;;;10497117;28;20111;-80
2023/10/17 05:00:25;;;;;;;79.73;34.03;;;;;;;;;;10488376;28;20045;-79
2023/10/17 06:19:27;;;;;;;62.00;36.03;;;;;;;;;;10503276;28;20079;-80
2023/10/17 06:34:57;;;;;;;87.37;45.23;;;;;;;;;;10504458;28;20033;-84
2023/10/17 06:39:59;;;;;;;80.03;42.77;;;;;;;;;;10495274;28;20036;-79
2023/10/17 06:45:10;;;;;;;82.20;44.83;;;;;;;;;;10494781;28;20135;-79
2023/10/17 06:55:21;;;;;;;121.80;60.40;;;;;;;;;;10501018;28;20036;-78
2023/10/17 07:00:42;;;;;;;106.23;56.83;;;;;;;;;;10491809;28;20103;-84
2023/10/17 07:05:49;;;;;;;92.57;51.40;;;;;;;;;;10498437;28;20044;-81
2023/10/17 07:11:02;;;;;;;75.37;42.47;;;;;;;;;;10505026;28;20039;-83
2023/10/17 07:16:48;;;;;;;78.20;41.10;;;;;;;;;;10492668;28;20147;-81
2023/10/17 07:21:28;;;;;;;78.27;43.67;;;;;;;;;;10495311;28;20416;-83
2023/10/17 07:31:30;;;;;;;89.03;41.53;;;;;;;;;;10490402;28;20024;-83
2023/10/17 07:36:32;;;;;;;84.17;40.50;;;;;;;;;;10504604;28;20028;-81
2023/10/17 07:41:36;;;;;;;74.67;40.23;;;;;;;;;;10496118;28;20024;-81
2023/10/17 07:46:38;;;;;;;84.80;38.87;;;;;;;;;;10493992;28;20654;-82
2023/10/17 07:51:42;;;;;;;89.20;38.47;;;;;;;;;;10494096;28;20435;-82
2023/10/17 07:56:50;;;;;;;76.93;36.20;;;;;;;;;;10496021;28;20040;-81
2023/10/17 08:01:58;;;;;;;72.80;32.27;;;;;;;;;;10490267;28;20037;-80
2023/10/17 08:06:59;;;;;;;49.50;26.87;;;;;;;;;;10488808;28;20032;-81
2023/10/17 08:12:02;;;;;;;46.23;25.27;;;;;;;;;;10503061;28;20415;-82
2023/10/17 08:17:05;;;;;;;36.97;21.33;;;;;;;;;;10495032;28;20031;-81
2023/10/17 08:27:13;;;;;;;43.90;24.60;;;;;;;;;;10488317;28;20048;-81
2023/10/17 08:37:43;;;;;;;35.50;20.73;;;;;;;;;;10462378;28;20040;-81
2023/10/17 08:42:49;;;;;;;33.33;19.63;;;;;;;;;;10488327;28;20032;-82
2023/10/17 08:47:51;;;;;;;29.35;16.67;;;;;;;;;;10491083;28;20150;-83
2023/10/17 08:52:53;;;;;;;22.50;12.18;;;;;;;;;;10490809;28;20435;-82
2023/10/17 08:57:54;;;;;;;22.77;12.23;;;;;;;;;;10487269;28;20121;-81
2023/10/17 09:02:55;;;;;;;24.70;11.00;;;;;;;;;;10495008;28;20093;-81
2023/10/17 09:07:57;;;;;;;22.73;11.52;;;;;;;;;;10497392;28;20788;-80
2023/10/17 09:18:27;;;;;;;8.52;4.63;;;;;;;;;;10485832;28;20071;-79
2023/10/17 09:23:30;;;;;;;10.15;5.30;;;;;;;;;;10492956;28;20020;-82
2023/10/17 09:28:32;;;;;;;8.27;5.40;;;;;;;;;;10485544;28;20048;-81
2023/10/17 09:33:34;;;;;;;8.20;4.70;;;;;;;;;;10486051;28;20035;-82
2023/10/17 09:38:41;;;;;;;9.80;4.88;;;;;;;;;;10486652;28;20071;-80
2023/10/17 09:43:42;;;;;;;8.30;5.30;;;;;;;;;;10485902;28;20043;-81
2023/10/17 09:48:44;;;;;;;5.70;3.53;;;;;;;;;;10487508;28;20051;-83
2023/10/17 09:53:45;;;;;;;6.13;4.65;;;;;;;;;;10486629;28;20480;-81
2023/10/17 09:58:49;;;;;;;9.50;4.43;;;;;;;;;;10486184;28;20036;-80
2023/10/17 10:03:56;;;;;;;7.43;4.05;;;;;;;;;;10501335;28;20468;-80
2023/10/17 10:09:13;;;;;;;8.70;3.72;;;;;;;;;;10489465;28;20043;-80
2023/10/17 10:14:14;;;;;;;6.95;3.70;;;;;;;;;;10484333;28;20435;-83
2023/10/17 10:19:16;;;;;;;10.07;4.88;;;;;;;;;;10474372;28;20033;-82
2023/10/17 10:24:18;;;;;;;6.72;4.03;;;;;;;;;;10484332;28;20830;-81
2023/10/17 10:29:22;;;;;;;6.40;4.30;;;;;;;;;;10484293;28;20032;-82
2023/10/17 10:34:23;;;;;;;9.20;4.22;;;;;;;;;;10491371;28;20055;-84
2023/10/17 10:39:25;;;;;;;4.63;3.33;;;;;;;;;;10496732;28;20481;-82
2023/10/17 10:44:26;;;;;;;5.30;3.08;;;;;;;;;;10487730;28;20132;-82
2023/10/17 10:49:28;;;;;;;6.32;3.30;;;;;;;;;;10484957;28;20056;-81
2023/10/17 10:55:01;;;;;;;7.78;3.95;;;;;;;;;;10483734;28;20032;-82
2023/10/17 11:00:07;;;;;;;6.30;3.30;;;;;;;;;;10446794;28;20408;-82
2023/10/17 11:05:12;;;;;;;4.90;3.13;;;;;;;;;;10505090;28;20048;-83
2023/10/17 11:10:18;;;;;;;7.45;3.85;;;;;;;;;;10492992;28;20036;-84
2023/10/17 11:15:27;;;;;;;9.07;4.00;;;;;;;;;;10493893;28;20032;-82
2023/10/17 11:20:28;;;;;;;6.78;3.85;;;;;;;;;;10493495;28;20074;-82
2023/10/17 11:25:36;;;;;;;5.57;3.60;;;;;;;;;;10495798;28;20151;-81
2023/10/17 11:30:45;;;;;;;6.68;3.40;;;;;;;;;;10491359;28;20369;-82
2023/10/17 11:35:50;;;;;;;6.60;3.88;;;;;;;;;;10491447;28;20170;-81
2023/10/17 11:40:51;;;;;;;6.88;4.03;;;;;;;;;;10508087;28;20028;-82
2023/10/17 11:45:52;;;;;;;6.63;4.20;;;;;;;;;;10493535;28;20560;-82
2023/10/17 11:51:06;;;;;;;9.43;4.65;;;;;;;;;;10503488;28;20029;-81
2023/10/17 11:56:08;;;;;;;7.57;4.55;;;;;;;;;;10494178;28;20133;-80
2023/10/17 12:01:10;;;;;;;10.85;3.88;;;;;;;;;;10489603;28;20029;-82
2023/10/17 12:06:17;;;;;;;6.38;4.03;;;;;;;;;;10494377;28;20090;-82
2023/10/17 12:11:18;;;;;;;9.25;3.70;;;;;;;;;;10488777;28;20044;-81
2023/10/17 12:16:28;;;;;;;5.22;3.38;;;;;;;;;;10500436;28;20024;-83
2023/10/17 12:21:29;;;;;;;6.22;3.67;;;;;;;;;;10497799;28;20039;-83
2023/10/17 12:26:30;;;;;;;6.00;3.40;;;;;;;;;;10491120;28;20061;-82
2023/10/17 12:31:31;;;;;;;7.47;3.67;;;;;;;;;;10485706;28;20025;-84
2023/10/17 12:36:34;;;;;;;6.45;3.85;;;;;;;;;;10478938;28;20085;-83
2023/10/17 12:41:35;;;;;;;11.30;4.18;;;;;;;;;;10503843;28;20146;-82
2023/10/17 12:46:36;;;;;;;7.97;3.47;;;;;;;;;;10495099;28;20070;-80
2023/10/17 12:51:38;;;;;;;9.10;3.45;;;;;;;;;;10499798;28;20498;-80
2023/10/17 12:56:40;;;;;;;7.45;3.53;;;;;;;;;;10503411;28;20127;-81
2023/10/17 13:01:51;;;;;;;8.15;4.03;;;;;;;;;;10498643;28;20055;-81
2023/10/17 13:06:53;;;;;;;5.22;3.47;;;;;;;;;;10504352;28;20085;-80
2023/10/17 13:11:54;;;;;;;8.55;4.47;;;;;;;;;;10490265;28;20033;-81
2023/10/17 13:16:55;;;;;;;8.10;4.43;;;;;;;;;;10490380;28;20033;-81
2023/10/17 13:22:07;;;;;;;10.60;4.25;;;;;;;;;;10501774;28;20469;-81
2023/10/17 13:27:15;;;;;;;5.60;3.50;;;;;;;;;;10455880;28;1044704;-80
2023/10/17 13:32:17;;;;;;;9.40;4.60;;;;;;;;;;10491164;28;20025;-80
2023/10/17 13:37:18;;;;;;;10.75;4.78;;;;;;;;;;10499816;28;20094;-80
2023/10/17 13:42:19;;;;;;;12.95;4.85;;;;;;;;;;10490212;28;20047;-79
2023/10/17 13:47:20;;;;;;;11.25;5.70;;;;;;;;;;10497785;28;20459;-81
2023/10/17 13:52:22;;;;;;;8.13;4.53;;;;;;;;;;10517638;28;20374;-80
2023/10/17 13:57:29;;;;;;;12.27;5.80;;;;;;;;;;10497301;28;20060;-79
2023/10/17 14:02:30;;;;;;;12.75;5.95;;;;;;;;;;10493275;28;20039;-83
2023/10/17 14:07:32;;;;;;;10.77;5.63;;;;;;;;;;10492361;28;20036;-81
2023/10/17 14:12:33;;;;;;;10.32;4.10;;;;;;;;;;10497156;28;20028;-81
2023/10/17 14:17:34;;;;;;;11.10;5.55;;;;;;;;;;10485572;28;20119;-83
2023/10/17 14:22:44;;;;;;;9.52;4.70;;;;;;;;;;10492104;28;20060;-80
2023/10/17 14:27:45;;;;;;;7.88;5.20;;;;;;;;;;10494746;28;20492;-80
2023/10/17 14:32:46;;;;;;;6.25;4.07;;;;;;;;;;10493637;28;20035;-80
2023/10/17 14:37:47;;;;;;;8.73;3.58;;;;;;;;;;10508327;28;20047;-79
2023/10/17 14:42:48;;;;;;;10.63;5.47;;;;;;;;;;10509115;28;20119;-81
2023/10/17 14:47:50;;;;;;;9.88;3.67;;;;;;;;;;10507784;28;20507;-81
2023/10/17 14:52:52;;;;;;;7.22;3.88;;;;;;;;;;10510020;28;20017;-80
2023/10/17 14:57:55;;;;;;;7.95;3.92;;;;;;;;;;10496887;28;20082;-80
2023/10/17 15:02:59;;;;;;;8.57;4.20;;;;;;;;;;10511891;28;20044;-80
2023/10/17 15:08:00;;;;;;;7.90;4.07;;;;;;;;;;10508814;28;20481;-81
2023/10/17 15:13:01;;;;;;;8.38;3.95;;;;;;;;;;10500144;28;20786;-81
2023/10/17 15:18:02;;;;;;;8.63;4.40;;;;;;;;;;10504424;28;20115;-81
2023/10/17 15:23:03;;;;;;;10.95;4.85;;;;;;;;;;10497543;28;20028;-80
2023/10/17 15:28:04;;;;;;;7.18;4.38;;;;;;;;;;10491669;28;20113;-81
2023/10/17 15:33:06;;;;;;;7.90;4.25;;;;;;;;;;10501590;28;20599;-77
2023/10/17 15:38:07;;;;;;;7.43;4.22;;;;;;;;;;10491033;28;20954;-79
2023/10/17 15:43:11;;;;;;;7.95;3.88;;;;;;;;;;10495424;28;20028;-80
2023/10/17 15:48:12;;;;;;;7.97;4.20;;;;;;;;;;10494202;28;20094;-79
2023/10/17 15:53:13;;;;;;;10.50;4.40;;;;;;;;;;10495355;28;20081;-78
2023/10/17 15:58:14;;;;;;;10.27;5.25;;;;;;;;;;10490696;28;20512;-81
2023/10/17 16:03:23;;;;;;;12.07;5.90;;;;;;;;;;10490925;28;20035;-81
2023/10/17 16:08:24;;;;;;;18.10;8.52;;;;;;;;;;10491465;28;20541;-81
2023/10/17 16:13:26;;;;;;;52.50;24.80;;;;;;;;;;10491563;28;20082;-81
2023/10/17 16:18:27;;;;;;;18.97;9.73;;;;;;;;;;10498070;28;20122;-81
2023/10/17 16:23:28;;;;;;;27.10;11.73;;;;;;;;;;10494398;28;20029;-79
2023/10/17 16:28:30;;;;;;;22.70;12.80;;;;;;;;;;10488672;28;20067;-80
2023/10/17 16:33:31;;;;;;;29.73;13.77;;;;;;;;;;10492683;28;20031;-80
2023/10/17 16:38:33;;;;;;;18.60;8.30;;;;;;;;;;10497665;28;20040;-81
2023/10/17 16:43:34;;;;;;;22.35;10.75;;;;;;;;;;10495027;28;20643;-81
2023/10/17 16:48:36;;;;;;;16.10;8.18;;;;;;;;;;10493365;28;20085;-81
2023/10/17 16:53:38;;;;;;;17.53;8.83;;;;;;;;;;10501324;28;20029;-82
2023/10/17 16:58:39;;;;;;;16.27;7.40;;;;;;;;;;10487388;28;20025;-81
2023/10/17 17:03:40;;;;;;;16.47;7.13;;;;;;;;;;10486385;28;20093;-81
2023/10/17 17:08:41;;;;;;;14.63;6.93;;;;;;;;;;10496478;28;20044;-81
2023/10/17 17:13:42;;;;;;;15.23;7.37;;;;;;;;;;10495445;28;20039;-81
2023/10/17 17:18:43;;;;;;;17.87;8.80;;;;;;;;;;10502469;28;20456;-82
2023/10/17 17:23:45;;;;;;;22.60;10.33;;;;;;;;;;10490590;28;20029;-81
2023/10/17 17:28:54;;;;;;;20.53;10.87;;;;;;;;;;10489863;28;20067;-81
2023/10/17 17:33:55;;;;;;;31.10;14.60;;;;;;;;;;10486054;28;20078;-82
2023/10/17 17:38:55;;;;;;;35.47;15.83;;;;;;;;;;10494299;28;20544;-81
2023/10/17 17:43:56;;;;;;;51.53;23.03;;;;;;;;;;10498940;28;20106;-81
2023/10/17 17:48:58;;;;;;;51.70;22.77;;;;;;;;;;10498795;28;20028;-85
2023/10/17 17:53:58;;;;;;;38.03;17.23;;;;;;;;;;10479170;28;20120;-80
2023/10/17 17:59:01;;;;;;;37.33;17.37;;;;;;;;;;10501211;28;20060;-79
2023/10/17 18:04:02;;;;;;;34.50;17.60;;;;;;;;;;10467657;28;20032;-79
2023/10/17 18:09:05;;;;;;;46.03;22.07;;;;;;;;;;10495671;28;20040;-80
2023/10/17 18:14:06;;;;;;;62.47;29.20;;;;;;;;;;10481847;28;20083;-81
2023/10/17 18:19:08;;;;;;;100.10;45.77;;;;;;;;;;10493606;28;20035;-82
2023/10/17 18:24:10;;;;;;;57.47;27.63;;;;;;;;;;10492262;28;20527;-83
2023/10/17 18:29:12;;;;;;;53.10;23.70;;;;;;;;;;10494143;28;20563;-83
2023/10/17 18:34:13;;;;;;;47.33;21.50;;;;;;;;;;10476291;28;20120;-82
2023/10/17 18:39:14;;;;;;;44.47;20.53;;;;;;;;;;10503307;28;20032;-82
2023/10/17 18:44:15;;;;;;;36.33;17.70;;;;;;;;;;10499070;28;20083;-82
2023/10/17 18:49:16;;;;;;;35.40;16.20;;;;;;;;;;10478258;28;20050;-82
2023/10/17 18:54:17;;;;;;;27.80;14.80;;;;;;;;;;10493581;28;20032;-82
2023/10/17 18:59:18;;;;;;;29.93;14.63;;;;;;;;;;10495632;28;20414;-83
2023/10/17 19:04:19;;;;;;;38.77;19.10;;;;;;;;;;10494698;28;20372;-82
2023/10/17 19:09:20;;;;;;;46.57;23.53;;;;;;;;;;10509080;28;20032;-82
2023/10/17 19:14:21;;;;;;;46.63;24.37;;;;;;;;;;10504162;28;20102;-82
2023/10/17 19:19:22;;;;;;;48.20;23.77;;;;;;;;;;10493405;28;20083;-81
2023/10/17 19:24:30;;;;;;;36.43;17.63;;;;;;;;;;10504256;28;20089;-80
2023/10/17 19:29:31;;;;;;;43.90;21.67;;;;;;;;;;10498702;28;20090;-81
2023/10/17 19:34:32;;;;;;;68.73;30.17;;;;;;;;;;10491462;28;20035;-81
2023/10/17 19:39:33;;;;;;;109.80;52.07;;;;;;;;;;10502437;28;20029;-82
2023/10/17 19:44:39;;;;;;;73.70;37.10;;;;;;;;;;10501681;28;20040;-81
2023/10/17 19:49:40;;;;;;;73.63;34.10;;;;;;;;;;10505175;28;20028;-82
2023/10/17 19:54:42;;;;;;;68.83;33.10;;;;;;;;;;10496791;28;20021;-81
2023/10/17 19:59:44;;;;;;;62.93;28.57;;;;;;;;;;10496311;28;20464;-81
2023/10/17 20:04:44;;;;;;;67.67;31.47;;;;;;;;;;10493730;28;20086;-81
2023/10/17 20:09:46;;;;;;;68.30;31.83;;;;;;;;;;10499547;28;20441;-81
2023/10/17 20:14:47;;;;;;;66.83;32.43;;;;;;;;;;10501772;28;20024;-81
2023/10/17 20:19:48;;;;;;;69.73;31.73;;;;;;;;;;10508913;28;20421;-82
2023/10/17 20:24:49;;;;;;;59.50;28.00;;;;;;;;;;10502557;28;20109;-81
2023/10/17 20:29:50;;;;;;;64.70;31.93;;;;;;;;;;10492496;28;20113;-82
2023/10/17 20:34:52;;;;;;;52.97;27.70;;;;;;;;;;10502719;28;20032;-82
2023/10/17 20:39:53;;;;;;;71.90;35.93;;;;;;;;;;10496898;28;20107;-82
2023/10/17 20:44:54;;;;;;;66.17;32.33;;;;;;;;;;10488053;28;20524;-82
2023/10/17 20:49:55;;;;;;;75.90;38.80;;;;;;;;;;10504513;28;20024;-81
2023/10/17 20:54:56;;;;;;;65.10;30.63;;;;;;;;;;10481906;28;20043;-81
2023/10/17 20:59:57;;;;;;;77.00;37.87;;;;;;;;;;10500463;28;20136;-81
2023/10/17 21:04:58;;;;;;;69.30;35.80;;;;;;;;;;10507067;28;20036;-81
2023/10/17 21:09:59;;;;;;;59.47;30.70;;;;;;;;;;10498413;28;20032;-81
2023/10/17 21:15:00;;;;;;;65.37;34.17;;;;;;;;;;10491719;28;20029;-81
2023/10/17 21:20:02;;;;;;;67.97;33.43;;;;;;;;;;10495788;28;20030;-83
2023/10/17 21:25:03;;;;;;;74.37;35.03;;;;;;;;;;10497456;28;20107;-81
2023/10/17 21:30:04;;;;;;;65.73;30.33;;;;;;;;;;10501118;28;20025;-81
2023/10/17 21:35:07;;;;;;;57.87;28.60;;;;;;;;;;10498489;28;20036;-83
2023/10/17 21:40:09;;;;;;;52.10;28.53;;;;;;;;;;10500922;28;20035;-81
2023/10/17 21:45:16;;;;;;;93.50;38.77;;;;;;;;;;10489874;28;20089;-81
2023/10/17 21:50:17;;;;;;;134.00;63.13;;;;;;;;;;10495305;28;20024;-82
2023/10/17 21:55:18;;;;;;;86.20;42.50;;;;;;;;;;10493651;28;20487;-83
2023/10/17 22:00:22;;;;;;;118.50;62.60;;;;;;;;;;10486033;28;20036;-82
2023/10/17 22:05:23;;;;;;;102.13;51.17;;;;;;;;;;10491955;28;20059;-82
2023/10/17 22:10:25;;;;;;;91.73;45.67;;;;;;;;;;10502349;28;20071;-82
2023/10/17 22:15:26;;;;;;;105.87;57.80;;;;;;;;;;10502380;28;20462;-82
2023/10/17 22:20:28;;;;;;;83.83;40.37;;;;;;;;;;10484698;28;20024;-81
2023/10/17 22:25:28;;;;;;;116.87;58.00;;;;;;;;;;10498153;28;20060;-82
2023/10/17 22:30:30;;;;;;;104.33;51.43;;;;;;;;;;10467113;28;20115;-81
2023/10/17 22:35:31;;;;;;;109.07;56.30;;;;;;;;;;10485043;28;20111;-81
2023/10/17 22:40:33;;;;;;;91.63;48.30;;;;;;;;;;10486497;28;20115;-81
2023/10/17 22:45:36;;;;;;;99.73;50.40;;;;;;;;;;10486743;28;20040;-81
2023/10/17 22:50:37;;;;;;;113.33;53.13;;;;;;;;;;10486757;28;20036;-82
2023/10/17 22:55:39;;;;;;;79.07;38.50;;;;;;;;;;10490515;28;20533;-82
2023/10/17 23:00:40;;;;;;;88.43;42.60;;;;;;;;;;10490474;28;20055;-81
2023/10/17 23:05:41;;;;;;;92.67;50.73;;;;;;;;;;10494438;28;20120;-82
2023/10/17 23:10:42;;;;;;;94.50;47.57;;;;;;;;;;10499000;28;20036;-82
2023/10/17 23:15:43;;;;;;;109.67;55.27;;;;;;;;;;10491458;28;20031;-81
2023/10/17 23:20:44;;;;;;;108.20;54.83;;;;;;;;;;10491041;28;20494;-82
2023/10/17 23:25:45;;;;;;;85.90;44.67;;;;;;;;;;10493341;28;20079;-83
2023/10/17 23:30:46;;;;;;;103.07;51.43;;;;;;;;;;10490689;28;20033;-82
2023/10/17 23:35:47;;;;;;;86.20;43.10;;;;;;;;;;10498369;28;20028;-82
2023/10/17 23:40:48;;;;;;;108.83;50.80;;;;;;;;;;10491570;28;20036;-81
2023/10/17 23:45:52;;;;;;;84.03;43.93;;;;;;;;;;10472135;28;20036;-82
2023/10/17 23:50:54;;;;;;;91.43;47.70;;;;;;;;;;10490412;28;20113;-81
2023/10/17 23:56:02;;;;;;;113.93;57.17;;;;;;;;;;10493445;28;20032;-81
